sensor_id;sensor_type;location;lat;lon;timestamp;P1;durP1;ratioP1;P2;durP2;ratioP2
25780;SDS011;13626;48.128;11.628;2023-02-28T00:00:35;6.28;;;3.03;;
25780;SDS011;13626;48.128;11.628;2023-02-28T00:03:03;7.07;;;3.03;;
25780;SDS011;13626;48.128;11.628;2023-02-28T00:05:30;4.35;;;2.83;;
25780;SDS011;13626;48.128;11.628;2023-02-28T00:07:58;3.72;;;2.78;;
25780;SDS011;13626;48.128;11.628;2023-02-28T00:10:26;5.78;;;2.78;;
25780;SDS011;13626;48.128;11.628;2023-02-28T00:12:55;5.32;;;3.30;;
25780;SDS011;13626;48.128;11.628;2023-02-28T00:15:23;8.63;;;3.75;;
25780;SDS011;13626;48.128;11.628;2023-02-28T00:17:50;5.35;;;3.10;;
25780;SDS011;13626;48.128;11.628;2023-02-28T00:20:18;6.13;;;3.05;;
25780;SDS011;13626;48.128;11.628;2023-02-28T00:22:46;6.38;;;3.03;;
25780;SDS011;13626;48.128;11.628;2023-02-28T00:25:15;8.13;;;3.05;;
25780;SDS011;13626;48.128;11.628;2023-02-28T00:27:43;6.13;;;3.20;;
25780;SDS011;13626;48.128;11.628;2023-02-28T00:30:12;6.32;;;3.50;;
25780;SDS011;13626;48.128;11.628;2023-02-28T00:32:39;6.40;;;3.38;;
25780;SDS011;13626;48.128;11.628;2023-02-28T00:35:07;8.68;;;3.50;;
25780;SDS011;13626;48.128;11.628;2023-02-28T00:37:34;4.65;;;2.90;;
25780;SDS011;13626;48.128;11.628;2023-02-28T00:40:02;5.85;;;2.78;;
25780;SDS011;13626;48.128;11.628;2023-02-28T00:42:32;4.88;;;2.97;;
25780;SDS011;13626;48.128;11.628;2023-02-28T00:44:59;5.55;;;3.15;;
25780;SDS011;13626;48.128;11.628;2023-02-28T00:47:27;4.95;;;3.05;;
25780;SDS011;13626;48.128;11.628;2023-02-28T00:49:54;8.52;;;3.42;;
25780;SDS011;13626;48.128;11.628;2023-02-28T00:52:21;5.30;;;3.22;;
25780;SDS011;13626;48.128;11.628;2023-02-28T00:54:49;10.20;;;4.07;;
25780;SDS011;13626;48.128;11.628;2023-02-28T00:57:16;7.20;;;3.58;;
25780;SDS011;13626;48.128;11.628;2023-02-28T00:59:43;7.32;;;3.22;;
25780;SDS011;13626;48.128;11.628;2023-02-28T01:02:10;6.88;;;3.25;;
25780;SDS011;13626;48.128;11.628;2023-02-28T01:04:37;6.22;;;3.30;;
25780;SDS011;13626;48.128;11.628;2023-02-28T01:07:04;5.03;;;3.22;;
25780;SDS011;13626;48.128;11.628;2023-02-28T01:09:31;6.00;;;3.08;;
25780;SDS011;13626;48.128;11.628;2023-02-28T01:11:59;5.78;;;3.15;;
25780;SDS011;13626;48.128;11.628;2023-02-28T01:14:26;4.50;;;3.17;;
25780;SDS011;13626;48.128;11.628;2023-02-28T01:16:53;5.70;;;3.30;;
25780;SDS011;13626;48.128;11.628;2023-02-28T01:19:20;5.78;;;3.03;;
25780;SDS011;13626;48.128;11.628;2023-02-28T01:21:47;6.45;;;3.95;;
25780;SDS011;13626;48.128;11.628;2023-02-28T01:24:14;6.28;;;3.45;;
25780;SDS011;13626;48.128;11.628;2023-02-28T01:26:42;7.55;;;3.70;;
25780;SDS011;13626;48.128;11.628;2023-02-28T01:29:09;4.75;;;2.95;;
25780;SDS011;13626;48.128;11.628;2023-02-28T01:31:36;6.38;;;3.38;;
25780;SDS011;13626;48.128;11.628;2023-02-28T01:34:03;6.72;;;4.20;;
25780;SDS011;13626;48.128;11.628;2023-02-28T01:36:30;5.75;;;3.95;;
25780;SDS011;13626;48.128;11.628;2023-02-28T01:38:58;5.85;;;3.60;;
25780;SDS011;13626;48.128;11.628;2023-02-28T01:41:27;6.32;;;3.58;;
25780;SDS011;13626;48.128;11.628;2023-02-28T01:44:05;6.20;;;4.07;;
25780;SDS011;13626;48.128;11.628;2023-02-28T01:46:34;6.95;;;3.88;;
25780;SDS011;13626;48.128;11.628;2023-02-28T01:53:58;7.65;;;3.70;;
25780;SDS011;13626;48.128;11.628;2023-02-28T01:56:28;7.95;;;3.78;;
25780;SDS011;13626;48.128;11.628;2023-02-28T01:58:56;5.38;;;3.58;;
25780;SDS011;13626;48.128;11.628;2023-02-28T02:01:23;6.95;;;3.33;;
25780;SDS011;13626;48.128;11.628;2023-02-28T02:03:54;7.47;;;3.85;;
25780;SDS011;13626;48.128;11.628;2023-02-28T02:06:22;6.15;;;3.95;;
25780;SDS011;13626;48.128;11.628;2023-02-28T02:08:50;5.47;;;3.95;;
25780;SDS011;13626;48.128;11.628;2023-02-28T02:11:19;5.63;;;3.60;;
25780;SDS011;13626;48.128;11.628;2023-02-28T02:14:30;6.72;;;3.53;;
25780;SDS011;13626;48.128;11.628;2023-02-28T02:24:55;5.85;;;3.80;;
25780;SDS011;13626;48.128;11.628;2023-02-28T02:35:35;5.55;;;3.67;;
25780;SDS011;13626;48.128;11.628;2023-02-28T02:38:19;6.03;;;3.67;;
25780;SDS011;13626;48.128;11.628;2023-02-28T02:46:36;5.80;;;3.58;;
25780;SDS011;13626;48.128;11.628;2023-02-28T02:49:06;8.30;;;3.95;;
25780;SDS011;13626;48.128;11.628;2023-02-28T02:51:35;8.88;;;3.50;;
25780;SDS011;13626;48.128;11.628;2023-02-28T02:54:46;5.63;;;3.30;;
25780;SDS011;13626;48.128;11.628;2023-02-28T02:56:55;7.50;;;4.03;;
25780;SDS011;13626;48.128;11.628;2023-02-28T02:59:24;5.80;;;4.03;;
25780;SDS011;13626;48.128;11.628;2023-02-28T03:01:53;7.10;;;3.67;;
25780;SDS011;13626;48.128;11.628;2023-02-28T03:04:22;10.80;;;4.13;;
25780;SDS011;13626;48.128;11.628;2023-02-28T03:06:50;6.82;;;3.97;;
25780;SDS011;13626;48.128;11.628;2023-02-28T03:09:24;6.57;;;3.83;;
25780;SDS011;13626;48.128;11.628;2023-02-28T03:11:52;6.40;;;3.58;;
25780;SDS011;13626;48.128;11.628;2023-02-28T03:14:37;7.80;;;4.10;;
25780;SDS011;13626;48.128;11.628;2023-02-28T03:25:34;8.02;;;3.72;;
25780;SDS011;13626;48.128;11.628;2023-02-28T03:28:18;6.03;;;3.55;;
25780;SDS011;13626;48.128;11.628;2023-02-28T03:33:15;7.55;;;3.92;;
25780;SDS011;13626;48.128;11.628;2023-02-28T03:35:53;7.53;;;3.83;;
25780;SDS011;13626;48.128;11.628;2023-02-28T03:38:41;6.57;;;4.05;;
25780;SDS011;13626;48.128;11.628;2023-02-28T03:41:18;7.10;;;3.72;;
25780;SDS011;13626;48.128;11.628;2023-02-28T03:43:50;6.43;;;4.18;;
25780;SDS011;13626;48.128;11.628;2023-02-28T03:46:21;8.60;;;4.28;;
25780;SDS011;13626;48.128;11.628;2023-02-28T03:48:51;9.82;;;4.55;;
25780;SDS011;13626;48.128;11.628;2023-02-28T03:51:22;5.45;;;4.03;;
25780;SDS011;13626;48.128;11.628;2023-02-28T03:53:54;11.05;;;5.22;;
25780;SDS011;13626;48.128;11.628;2023-02-28T03:56:26;7.45;;;4.20;;
25780;SDS011;13626;48.128;11.628;2023-02-28T04:01:26;10.77;;;4.88;;
25780;SDS011;13626;48.128;11.628;2023-02-28T04:03:55;10.02;;;5.43;;
25780;SDS011;13626;48.128;11.628;2023-02-28T04:06:22;8.80;;;4.68;;
25780;SDS011;13626;48.128;11.628;2023-02-28T04:08:50;8.13;;;4.97;;
25780;SDS011;13626;48.128;11.628;2023-02-28T04:11:25;10.23;;;5.00;;
25780;SDS011;13626;48.128;11.628;2023-02-28T04:13:55;10.80;;;5.07;;
25780;SDS011;13626;48.128;11.628;2023-02-28T04:16:22;10.02;;;5.18;;
25780;SDS011;13626;48.128;11.628;2023-02-28T04:19:01;9.88;;;5.03;;
25780;SDS011;13626;48.128;11.628;2023-02-28T04:21:29;13.75;;;6.10;;
25780;SDS011;13626;48.128;11.628;2023-02-28T04:23:56;14.43;;;6.00;;
25780;SDS011;13626;48.128;11.628;2023-02-28T04:26:33;12.98;;;6.80;;
25780;SDS011;13626;48.128;11.628;2023-02-28T04:29:01;11.00;;;5.50;;
25780;SDS011;13626;48.128;11.628;2023-02-28T04:31:29;11.27;;;6.43;;
25780;SDS011;13626;48.128;11.628;2023-02-28T04:33:57;10.55;;;5.40;;
25780;SDS011;13626;48.128;11.628;2023-02-28T04:36:24;12.57;;;5.97;;
25780;SDS011;13626;48.128;11.628;2023-02-28T04:38:51;9.45;;;5.90;;
25780;SDS011;13626;48.128;11.628;2023-02-28T04:41:19;10.48;;;5.82;;
25780;SDS011;13626;48.128;11.628;2023-02-28T04:43:46;13.10;;;6.40;;
25780;SDS011;13626;48.128;11.628;2023-02-28T04:46:14;9.73;;;5.25;;
25780;SDS011;13626;48.128;11.628;2023-02-28T04:48:41;12.07;;;6.13;;
25780;SDS011;13626;48.128;11.628;2023-02-28T04:51:11;10.82;;;5.88;;
25780;SDS011;13626;48.128;11.628;2023-02-28T04:53:39;13.98;;;6.10;;
25780;SDS011;13626;48.128;11.628;2023-02-28T04:56:07;12.20;;;6.18;;
25780;SDS011;13626;48.128;11.628;2023-02-28T04:58:35;12.85;;;6.43;;
25780;SDS011;13626;48.128;11.628;2023-02-28T05:01:03;10.95;;;6.45;;
25780;SDS011;13626;48.128;11.628;2023-02-28T05:03:30;13.13;;;6.90;;
25780;SDS011;13626;48.128;11.628;2023-02-28T05:05:57;15.20;;;6.60;;
25780;SDS011;13626;48.128;11.628;2023-02-28T05:08:25;11.65;;;6.20;;
25780;SDS011;13626;48.128;11.628;2023-02-28T05:10:52;11.77;;;7.32;;
25780;SDS011;13626;48.128;11.628;2023-02-28T05:13:19;14.70;;;7.28;;
25780;SDS011;13626;48.128;11.628;2023-02-28T05:15:46;12.32;;;7.13;;
25780;SDS011;13626;48.128;11.628;2023-02-28T05:18:14;12.75;;;6.50;;
25780;SDS011;13626;48.128;11.628;2023-02-28T05:20:41;15.05;;;7.05;;
25780;SDS011;13626;48.128;11.628;2023-02-28T05:23:08;17.83;;;7.38;;
25780;SDS011;13626;48.128;11.628;2023-02-28T05:25:38;13.63;;;6.68;;
25780;SDS011;13626;48.128;11.628;2023-02-28T05:28:05;13.13;;;6.70;;
25780;SDS011;13626;48.128;11.628;2023-02-28T05:30:33;14.73;;;6.90;;
25780;SDS011;13626;48.128;11.628;2023-02-28T05:33:00;14.10;;;6.93;;
25780;SDS011;13626;48.128;11.628;2023-02-28T05:35:27;16.15;;;8.07;;
25780;SDS011;13626;48.128;11.628;2023-02-28T05:37:54;16.15;;;7.88;;
25780;SDS011;13626;48.128;11.628;2023-02-28T05:40:21;13.32;;;7.50;;
25780;SDS011;13626;48.128;11.628;2023-02-28T05:42:50;13.90;;;8.23;;
25780;SDS011;13626;48.128;11.628;2023-02-28T05:45:17;14.95;;;7.57;;
25780;SDS011;13626;48.128;11.628;2023-02-28T05:47:44;14.43;;;8.10;;
25780;SDS011;13626;48.128;11.628;2023-02-28T05:50:11;15.00;;;7.97;;
25780;SDS011;13626;48.128;11.628;2023-02-28T05:52:39;16.33;;;8.68;;
25780;SDS011;13626;48.128;11.628;2023-02-28T05:55:07;18.27;;;9.07;;
25780;SDS011;13626;48.128;11.628;2023-02-28T05:57:34;18.30;;;8.77;;
25780;SDS011;13626;48.128;11.628;2023-02-28T06:00:01;18.42;;;9.65;;
25780;SDS011;13626;48.128;11.628;2023-02-28T06:02:29;15.77;;;9.25;;
25780;SDS011;13626;48.128;11.628;2023-02-28T06:04:56;16.48;;;9.05;;
25780;SDS011;13626;48.128;11.628;2023-02-28T06:07:23;18.13;;;9.70;;
25780;SDS011;13626;48.128;11.628;2023-02-28T06:09:50;18.27;;;8.90;;
25780;SDS011;13626;48.128;11.628;2023-02-28T06:12:18;19.23;;;9.43;;
25780;SDS011;13626;48.128;11.628;2023-02-28T06:14:45;18.58;;;10.60;;
25780;SDS011;13626;48.128;11.628;2023-02-28T06:17:12;19.02;;;10.60;;
25780;SDS011;13626;48.128;11.628;2023-02-28T06:19:39;15.93;;;9.35;;
25780;SDS011;13626;48.128;11.628;2023-02-28T06:22:07;19.73;;;10.10;;
25780;SDS011;13626;48.128;11.628;2023-02-28T06:24:34;19.77;;;9.77;;
25780;SDS011;13626;48.128;11.628;2023-02-28T06:27:01;20.63;;;10.30;;
25780;SDS011;13626;48.128;11.628;2023-02-28T06:29:32;16.98;;;9.23;;
25780;SDS011;13626;48.128;11.628;2023-02-28T06:32:00;21.27;;;11.18;;
25780;SDS011;13626;48.128;11.628;2023-02-28T06:34:27;18.80;;;10.00;;
25780;SDS011;13626;48.128;11.628;2023-02-28T06:36:55;16.40;;;9.77;;
25780;SDS011;13626;48.128;11.628;2023-02-28T06:39:23;22.58;;;10.43;;
25780;SDS011;13626;48.128;11.628;2023-02-28T06:41:50;18.50;;;10.35;;
25780;SDS011;13626;48.128;11.628;2023-02-28T06:44:21;19.15;;;10.48;;
25780;SDS011;13626;48.128;11.628;2023-02-28T06:46:49;17.42;;;10.02;;
25780;SDS011;13626;48.128;11.628;2023-02-28T06:49:16;20.17;;;11.63;;
25780;SDS011;13626;48.128;11.628;2023-02-28T06:51:44;17.90;;;9.63;;
25780;SDS011;13626;48.128;11.628;2023-02-28T06:54:12;20.70;;;10.20;;
25780;SDS011;13626;48.128;11.628;2023-02-28T06:56:39;23.88;;;11.20;;
25780;SDS011;13626;48.128;11.628;2023-02-28T06:59:06;20.45;;;9.93;;
25780;SDS011;13626;48.128;11.628;2023-02-28T07:01:33;22.73;;;10.68;;
25780;SDS011;13626;48.128;11.628;2023-02-28T07:04:01;19.33;;;10.25;;
25780;SDS011;13626;48.128;11.628;2023-02-28T07:06:28;20.00;;;10.23;;
25780;SDS011;13626;48.128;11.628;2023-02-28T07:08:55;20.15;;;11.15;;
25780;SDS011;13626;48.128;11.628;2023-02-28T07:11:23;23.70;;;11.30;;
25780;SDS011;13626;48.128;11.628;2023-02-28T07:13:52;17.85;;;10.32;;
25780;SDS011;13626;48.128;11.628;2023-02-28T07:16:20;20.08;;;10.90;;
25780;SDS011;13626;48.128;11.628;2023-02-28T07:18:48;19.60;;;10.15;;
25780;SDS011;13626;48.128;11.628;2023-02-28T07:21:15;21.73;;;10.20;;
25780;SDS011;13626;48.128;11.628;2023-02-28T07:23:42;20.27;;;10.23;;
25780;SDS011;13626;48.128;11.628;2023-02-28T07:26:14;19.10;;;11.07;;
25780;SDS011;13626;48.128;11.628;2023-02-28T07:28:42;21.20;;;10.68;;
25780;SDS011;13626;48.128;11.628;2023-02-28T07:31:09;18.48;;;10.80;;
25780;SDS011;13626;48.128;11.628;2023-02-28T07:33:37;20.70;;;10.52;;
25780;SDS011;13626;48.128;11.628;2023-02-28T07:36:05;20.13;;;11.27;;
25780;SDS011;13626;48.128;11.628;2023-02-28T07:38:37;20.88;;;10.52;;
25780;SDS011;13626;48.128;11.628;2023-02-28T07:41:04;20.33;;;11.70;;
25780;SDS011;13626;48.128;11.628;2023-02-28T07:43:32;24.75;;;11.65;;
25780;SDS011;13626;48.128;11.628;2023-02-28T07:46:06;21.33;;;11.75;;
25780;SDS011;13626;48.128;11.628;2023-02-28T07:48:34;22.23;;;11.50;;
25780;SDS011;13626;48.128;11.628;2023-02-28T07:51:02;21.45;;;11.52;;
25780;SDS011;13626;48.128;11.628;2023-02-28T07:53:29;18.40;;;10.63;;
25780;SDS011;13626;48.128;11.628;2023-02-28T07:55:57;19.92;;;11.10;;
25780;SDS011;13626;48.128;11.628;2023-02-28T07:58:25;21.27;;;10.38;;
25780;SDS011;13626;48.128;11.628;2023-02-28T08:00:52;21.67;;;10.95;;
25780;SDS011;13626;48.128;11.628;2023-02-28T08:03:21;19.65;;;10.32;;
25780;SDS011;13626;48.128;11.628;2023-02-28T08:05:48;18.45;;;10.70;;
25780;SDS011;13626;48.128;11.628;2023-02-28T08:08:16;19.33;;;11.35;;
25780;SDS011;13626;48.128;11.628;2023-02-28T08:10:43;21.70;;;11.10;;
25780;SDS011;13626;48.128;11.628;2023-02-28T08:13:10;20.65;;;10.65;;
25780;SDS011;13626;48.128;11.628;2023-02-28T08:15:38;18.98;;;11.10;;
25780;SDS011;13626;48.128;11.628;2023-02-28T08:18:05;22.55;;;11.15;;
25780;SDS011;13626;48.128;11.628;2023-02-28T08:20:32;24.83;;;10.80;;
25780;SDS011;13626;48.128;11.628;2023-02-28T08:22:59;18.60;;;11.63;;
25780;SDS011;13626;48.128;11.628;2023-02-28T08:25:26;22.85;;;12.98;;
25780;SDS011;13626;48.128;11.628;2023-02-28T08:27:54;20.30;;;11.60;;
25780;SDS011;13626;48.128;11.628;2023-02-28T08:30:21;22.80;;;11.07;;
25780;SDS011;13626;48.128;11.628;2023-02-28T08:32:48;20.67;;;11.85;;
25780;SDS011;13626;48.128;11.628;2023-02-28T08:35:15;19.75;;;11.40;;
25780;SDS011;13626;48.128;11.628;2023-02-28T08:37:43;23.95;;;11.93;;
25780;SDS011;13626;48.128;11.628;2023-02-28T08:40:10;21.20;;;11.20;;
25780;SDS011;13626;48.128;11.628;2023-02-28T08:42:44;19.20;;;11.53;;
25780;SDS011;13626;48.128;11.628;2023-02-28T08:45:12;18.77;;;11.43;;
25780;SDS011;13626;48.128;11.628;2023-02-28T08:47:39;20.65;;;11.13;;
25780;SDS011;13626;48.128;11.628;2023-02-28T08:50:06;20.50;;;10.63;;
25780;SDS011;13626;48.128;11.628;2023-02-28T08:52:34;19.08;;;11.65;;
25780;SDS011;13626;48.128;11.628;2023-02-28T08:55:01;20.40;;;11.68;;
25780;SDS011;13626;48.128;11.628;2023-02-28T08:57:28;24.48;;;11.80;;
25780;SDS011;13626;48.128;11.628;2023-02-28T08:59:55;21.38;;;11.57;;
25780;SDS011;13626;48.128;11.628;2023-02-28T09:02:23;22.77;;;11.25;;
25780;SDS011;13626;48.128;11.628;2023-02-28T09:04:50;19.88;;;12.10;;
25780;SDS011;13626;48.128;11.628;2023-02-28T09:07:17;19.33;;;10.90;;
25780;SDS011;13626;48.128;11.628;2023-02-28T09:09:44;19.15;;;11.07;;
25780;SDS011;13626;48.128;11.628;2023-02-28T09:12:23;23.27;;;11.45;;
25780;SDS011;13626;48.128;11.628;2023-02-28T09:14:51;20.60;;;11.00;;
25780;SDS011;13626;48.128;11.628;2023-02-28T09:17:18;22.80;;;12.05;;
25780;SDS011;13626;48.128;11.628;2023-02-28T09:19:47;23.55;;;11.35;;
25780;SDS011;13626;48.128;11.628;2023-02-28T09:22:14;20.92;;;11.70;;
25780;SDS011;13626;48.128;11.628;2023-02-28T09:24:42;22.38;;;11.48;;
25780;SDS011;13626;48.128;11.628;2023-02-28T09:27:10;20.67;;;11.13;;
25780;SDS011;13626;48.128;11.628;2023-02-28T09:29:38;22.05;;;11.18;;
25780;SDS011;13626;48.128;11.628;2023-02-28T09:32:05;23.02;;;12.27;;
25780;SDS011;13626;48.128;11.628;2023-02-28T09:34:32;20.85;;;11.93;;
25780;SDS011;13626;48.128;11.628;2023-02-28T09:36:59;22.92;;;12.18;;
25780;SDS011;13626;48.128;11.628;2023-02-28T09:39:26;20.08;;;12.05;;
25780;SDS011;13626;48.128;11.628;2023-02-28T09:41:55;19.73;;;10.90;;
25780;SDS011;13626;48.128;11.628;2023-02-28T09:44:30;20.60;;;11.85;;
25780;SDS011;13626;48.128;11.628;2023-02-28T09:47:05;20.35;;;11.75;;
25780;SDS011;13626;48.128;11.628;2023-02-28T09:49:37;23.90;;;12.60;;
25780;SDS011;13626;48.128;11.628;2023-02-28T09:52:07;21.27;;;12.18;;
25780;SDS011;13626;48.128;11.628;2023-02-28T09:54:36;21.75;;;11.30;;
25780;SDS011;13626;48.128;11.628;2023-02-28T09:57:46;21.50;;;11.32;;
25780;SDS011;13626;48.128;11.628;2023-02-28T09:59:57;20.25;;;11.50;;
25780;SDS011;13626;48.128;11.628;2023-02-28T10:05:14;18.58;;;11.30;;
25780;SDS011;13626;48.128;11.628;2023-02-28T10:10:22;19.85;;;11.60;;
25780;SDS011;13626;48.128;11.628;2023-02-28T10:12:52;21.02;;;11.55;;
25780;SDS011;13626;48.128;11.628;2023-02-28T10:15:21;20.63;;;12.43;;
25780;SDS011;13626;48.128;11.628;2023-02-28T10:17:48;20.23;;;11.18;;
25780;SDS011;13626;48.128;11.628;2023-02-28T10:20:34;16.65;;;10.85;;
25780;SDS011;13626;48.128;11.628;2023-02-28T10:23:11;21.42;;;11.45;;
25780;SDS011;13626;48.128;11.628;2023-02-28T10:25:39;18.50;;;11.20;;
25780;SDS011;13626;48.128;11.628;2023-02-28T10:30:34;20.45;;;11.00;;
25780;SDS011;13626;48.128;11.628;2023-02-28T10:33:02;22.10;;;11.55;;
25780;SDS011;13626;48.128;11.628;2023-02-28T10:35:29;20.75;;;10.88;;
25780;SDS011;13626;48.128;11.628;2023-02-28T10:37:57;20.98;;;11.00;;
25780;SDS011;13626;48.128;11.628;2023-02-28T10:40:27;18.85;;;11.13;;
25780;SDS011;13626;48.128;11.628;2023-02-28T10:45:25;23.17;;;11.18;;
25780;SDS011;13626;48.128;11.628;2023-02-28T10:47:55;18.83;;;11.57;;
25780;SDS011;13626;48.128;11.628;2023-02-28T10:50:27;17.30;;;10.77;;
25780;SDS011;13626;48.128;11.628;2023-02-28T10:52:54;18.00;;;11.40;;
25780;SDS011;13626;48.128;11.628;2023-02-28T10:55:23;18.45;;;10.75;;
25780;SDS011;13626;48.128;11.628;2023-02-28T10:57:51;21.00;;;11.40;;
25780;SDS011;13626;48.128;11.628;2023-02-28T11:00:20;17.80;;;11.13;;
25780;SDS011;13626;48.128;11.628;2023-02-28T11:02:48;22.23;;;11.45;;
25780;SDS011;13626;48.128;11.628;2023-02-28T11:08:12;20.63;;;11.13;;
25780;SDS011;13626;48.128;11.628;2023-02-28T11:10:44;22.75;;;11.60;;
25780;SDS011;13626;48.128;11.628;2023-02-28T11:13:19;18.90;;;11.20;;
25780;SDS011;13626;48.128;11.628;2023-02-28T11:15:53;18.60;;;10.88;;
25780;SDS011;13626;48.128;11.628;2023-02-28T11:20:52;21.38;;;10.73;;
25780;SDS011;13626;48.128;11.628;2023-02-28T11:23:21;20.08;;;11.07;;
25780;SDS011;13626;48.128;11.628;2023-02-28T11:25:51;16.63;;;10.25;;
25780;SDS011;13626;48.128;11.628;2023-02-28T11:28:28;22.70;;;11.32;;
25780;SDS011;13626;48.128;11.628;2023-02-28T11:31:00;18.50;;;10.98;;
25780;SDS011;13626;48.128;11.628;2023-02-28T11:36:02;18.25;;;10.73;;
25780;SDS011;13626;48.128;11.628;2023-02-28T11:38:31;17.67;;;10.70;;
25780;SDS011;13626;48.128;11.628;2023-02-28T11:46:41;16.60;;;10.23;;
25780;SDS011;13626;48.128;11.628;2023-02-28T12:00:08;18.40;;;11.40;;
25780;SDS011;13626;48.128;11.628;2023-02-28T12:07:54;17.92;;;9.88;;
25780;SDS011;13626;48.128;11.628;2023-02-28T12:13:02;17.05;;;10.18;;
25780;SDS011;13626;48.128;11.628;2023-02-28T12:18:11;17.63;;;10.38;;
25780;SDS011;13626;48.128;11.628;2023-02-28T12:24:22;17.17;;;9.93;;
25780;SDS011;13626;48.128;11.628;2023-02-28T12:31:52;15.40;;;9.73;;
25780;SDS011;13626;48.128;11.628;2023-02-28T12:34:22;16.65;;;9.88;;
25780;SDS011;13626;48.128;11.628;2023-02-28T12:36:52;19.30;;;10.75;;
25780;SDS011;13626;48.128;11.628;2023-02-28T12:39:23;15.55;;;9.65;;
25780;SDS011;13626;48.128;11.628;2023-02-28T12:42:01;20.70;;;9.68;;
25780;SDS011;13626;48.128;11.628;2023-02-28T12:44:32;15.95;;;9.65;;
25780;SDS011;13626;48.128;11.628;2023-02-28T12:47:03;13.45;;;9.30;;
25780;SDS011;13626;48.128;11.628;2023-02-28T12:49:33;15.40;;;9.85;;
25780;SDS011;13626;48.128;11.628;2023-02-28T12:52:01;21.90;;;9.98;;
25780;SDS011;13626;48.128;11.628;2023-02-28T12:54:42;15.35;;;9.38;;
25780;SDS011;13626;48.128;11.628;2023-02-28T12:57:34;18.48;;;10.32;;
25780;SDS011;13626;48.128;11.628;2023-02-28T13:00:10;14.65;;;8.85;;
25780;SDS011;13626;48.128;11.628;2023-02-28T13:10:17;14.55;;;9.80;;
25780;SDS011;13626;48.128;11.628;2023-02-28T13:12:48;14.55;;;8.55;;
25780;SDS011;13626;48.128;11.628;2023-02-28T13:15:25;14.57;;;9.38;;
25780;SDS011;13626;48.128;11.628;2023-02-28T13:17:56;15.45;;;9.18;;
25780;SDS011;13626;48.128;11.628;2023-02-28T13:20:26;15.93;;;9.73;;
25780;SDS011;13626;48.128;11.628;2023-02-28T13:22:55;15.13;;;9.40;;
25780;SDS011;13626;48.128;11.628;2023-02-28T13:28:01;14.23;;;8.88;;
25780;SDS011;13626;48.128;11.628;2023-02-28T13:35:46;15.80;;;8.95;;
25780;SDS011;13626;48.128;11.628;2023-02-28T13:38:22;13.88;;;9.38;;
25780;SDS011;13626;48.128;11.628;2023-02-28T13:40:49;15.45;;;8.75;;
25780;SDS011;13626;48.128;11.628;2023-02-28T13:43:17;15.95;;;9.43;;
25780;SDS011;13626;48.128;11.628;2023-02-28T13:46:10;16.60;;;9.20;;
25780;SDS011;13626;48.128;11.628;2023-02-28T13:48:38;16.75;;;10.30;;
25780;SDS011;13626;48.128;11.628;2023-02-28T13:53:57;13.80;;;9.07;;
25780;SDS011;13626;48.128;11.628;2023-02-28T13:56:44;18.27;;;9.55;;
25780;SDS011;13626;48.128;11.628;2023-02-28T13:59:19;17.45;;;9.48;;
25780;SDS011;13626;48.128;11.628;2023-02-28T14:06:57;15.70;;;9.93;;
25780;SDS011;13626;48.128;11.628;2023-02-28T14:09:27;15.55;;;9.88;;
25780;SDS011;13626;48.128;11.628;2023-02-28T14:11:55;14.43;;;9.70;;
25780;SDS011;13626;48.128;11.628;2023-02-28T14:17:03;13.07;;;8.70;;
25780;SDS011;13626;48.128;11.628;2023-02-28T14:19:31;14.18;;;8.52;;
25780;SDS011;13626;48.128;11.628;2023-02-28T14:22:05;12.77;;;8.82;;
25780;SDS011;13626;48.128;11.628;2023-02-28T14:27:40;16.35;;;10.00;;
25780;SDS011;13626;48.128;11.628;2023-02-28T14:30:15;14.18;;;8.57;;
25780;SDS011;13626;48.128;11.628;2023-02-28T14:32:49;13.35;;;8.52;;
25780;SDS011;13626;48.128;11.628;2023-02-28T14:37:54;13.55;;;8.65;;
25780;SDS011;13626;48.128;11.628;2023-02-28T14:40:40;18.90;;;9.88;;
25780;SDS011;13626;48.128;11.628;2023-02-28T14:43:19;17.17;;;9.25;;
25780;SDS011;13626;48.128;11.628;2023-02-28T14:45:50;14.30;;;8.70;;
25780;SDS011;13626;48.128;11.628;2023-02-28T14:48:18;14.05;;;8.82;;
25780;SDS011;13626;48.128;11.628;2023-02-28T14:50:50;13.23;;;8.90;;
25780;SDS011;13626;48.128;11.628;2023-02-28T14:53:18;14.10;;;8.52;;
25780;SDS011;13626;48.128;11.628;2023-02-28T14:55:47;14.45;;;9.13;;
25780;SDS011;13626;48.128;11.628;2023-02-28T14:58:22;14.50;;;9.63;;
25780;SDS011;13626;48.128;11.628;2023-02-28T15:03:18;15.25;;;8.77;;
25780;SDS011;13626;48.128;11.628;2023-02-28T15:05:54;15.93;;;8.20;;
25780;SDS011;13626;48.128;11.628;2023-02-28T15:08:21;14.82;;;8.70;;
25780;SDS011;13626;48.128;11.628;2023-02-28T15:10:58;18.08;;;9.35;;
25780;SDS011;13626;48.128;11.628;2023-02-28T15:13:33;18.35;;;9.00;;
25780;SDS011;13626;48.128;11.628;2023-02-28T15:16:03;15.88;;;8.55;;
25780;SDS011;13626;48.128;11.628;2023-02-28T15:21:00;13.60;;;9.18;;
25780;SDS011;13626;48.128;11.628;2023-02-28T15:23:29;14.85;;;9.68;;
25780;SDS011;13626;48.128;11.628;2023-02-28T15:25:56;16.40;;;8.77;;
25780;SDS011;13626;48.128;11.628;2023-02-28T15:28:24;15.57;;;9.82;;
25780;SDS011;13626;48.128;11.628;2023-02-28T15:30:53;14.35;;;9.18;;
25780;SDS011;13626;48.128;11.628;2023-02-28T15:33:25;13.73;;;9.10;;
25780;SDS011;13626;48.128;11.628;2023-02-28T15:38:34;13.35;;;9.20;;
25780;SDS011;13626;48.128;11.628;2023-02-28T15:41:01;14.23;;;8.60;;
25780;SDS011;13626;48.128;11.628;2023-02-28T15:43:35;15.30;;;9.48;;
25780;SDS011;13626;48.128;11.628;2023-02-28T15:46:03;14.45;;;8.05;;
25780;SDS011;13626;48.128;11.628;2023-02-28T15:48:42;19.42;;;9.85;;
25780;SDS011;13626;48.128;11.628;2023-02-28T15:53:47;15.30;;;8.90;;
25780;SDS011;13626;48.128;11.628;2023-02-28T15:56:25;15.10;;;9.53;;
25780;SDS011;13626;48.128;11.628;2023-02-28T15:58:53;17.60;;;9.05;;
25780;SDS011;13626;48.128;11.628;2023-02-28T16:01:24;18.10;;;9.75;;
25780;SDS011;13626;48.128;11.628;2023-02-28T16:03:53;17.75;;;9.65;;
25780;SDS011;13626;48.128;11.628;2023-02-28T16:08:48;16.33;;;9.63;;
25780;SDS011;13626;48.128;11.628;2023-02-28T16:11:17;18.90;;;9.48;;
25780;SDS011;13626;48.128;11.628;2023-02-28T16:13:45;14.70;;;9.25;;
25780;SDS011;13626;48.128;11.628;2023-02-28T16:16:19;18.35;;;9.45;;
25780;SDS011;13626;48.128;11.628;2023-02-28T16:18:46;16.33;;;9.30;;
25780;SDS011;13626;48.128;11.628;2023-02-28T16:21:14;18.92;;;10.02;;
25780;SDS011;13626;48.128;11.628;2023-02-28T16:23:41;18.60;;;8.98;;
25780;SDS011;13626;48.128;11.628;2023-02-28T16:26:10;20.77;;;10.00;;
25780;SDS011;13626;48.128;11.628;2023-02-28T16:28:42;19.92;;;9.35;;
25780;SDS011;13626;48.128;11.628;2023-02-28T16:31:10;26.02;;;10.43;;
25780;SDS011;13626;48.128;11.628;2023-02-28T16:33:43;17.27;;;9.73;;
25780;SDS011;13626;48.128;11.628;2023-02-28T16:36:12;17.10;;;9.48;;
25780;SDS011;13626;48.128;11.628;2023-02-28T16:38:40;18.30;;;9.80;;
25780;SDS011;13626;48.128;11.628;2023-02-28T16:41:07;20.13;;;11.07;;
25780;SDS011;13626;48.128;11.628;2023-02-28T16:43:43;19.70;;;9.63;;
25780;SDS011;13626;48.128;11.628;2023-02-28T16:46:10;21.00;;;10.23;;
25780;SDS011;13626;48.128;11.628;2023-02-28T16:48:39;19.60;;;10.18;;
25780;SDS011;13626;48.128;11.628;2023-02-28T16:51:14;16.25;;;9.55;;